Time;durP1;ratioP1;P1;durP2;ratioP2;P2;SDS_P1;SDS_P2;PMS_P1;PMS_P2;Temp;Humidity;BMP_temperature;BMP_pressure;BME280_temperature;BME280_humidity;BME280_pressure;Samples;Min_cycle;Max_cycle;Signal;HPM_P1;HPM_P2
2022/09/29 00:01:05;;;;;;;6.53;5.00;;;11.50;47.30;;;;;;5015140;28;20178;-43
2022/09/29 00:03:31;;;;;;;5.82;4.82;;;11.50;47.20;;;;;;5014815;28;21094;-43
2022/09/29 00:05:57;;;;;;;7.75;4.60;;;11.50;47.10;;;;;;5014327;28;20203;-43
2022/09/29 00:08:26;;;;;;;5.17;4.23;;;11.50;47.10;;;;;;5014902;28;20228;-42
2022/09/29 00:10:51;;;;;;;9.75;5.22;;;11.50;46.90;;;;;;5014688;28;20444;-43
2022/09/29 00:13:18;;;;;;;5.27;4.40;;;11.40;46.90;;;;;;5014594;28;20178;-43
2022/09/29 00:15:44;;;;;;;5.53;4.30;;;11.40;46.80;;;;;;5014071;28;20401;-43
2022/09/29 00:18:10;;;;;;;5.00;4.10;;;11.40;47.00;;;;;;5014463;28;20210;-42
2022/09/29 00:20:37;;;;;;;7.22;5.03;;;11.40;47.10;;;;;;5014535;28;20218;-42
2022/09/29 00:23:03;;;;;;;6.43;5.22;;;11.30;47.00;;;;;;5014511;28;20175;-42
2022/09/29 00:25:29;;;;;;;5.10;4.60;;;11.30;47.10;;;;;;5014301;28;20220;-42
2022/09/29 00:27:55;;;;;;;9.02;6.40;;;11.40;47.10;;;;;;5013585;28;20417;-42
2022/09/29 00:30:21;;;;;;;5.07;4.57;;;11.30;47.20;;;;;;5014398;28;20732;-43
2022/09/29 00:32:47;;;;;;;7.50;5.87;;;11.30;47.20;;;;;;5014407;28;20174;-42
2022/09/29 00:35:12;;;;;;;5.07;4.13;;;11.30;47.20;;;;;;5014541;28;20175;-42
2022/09/29 00:37:39;;;;;;;5.67;4.00;;;11.30;47.00;;;;;;5013699;28;20675;-43
2022/09/29 00:40:06;;;;;;;5.30;4.70;;;11.30;47.00;;;;;;5013986;28;20199;-43
2022/09/29 00:42:31;;;;;;;5.50;4.72;;;11.30;47.00;;;;;;5014067;28;20647;-42
2022/09/29 00:45:17;;;;;;;5.77;4.00;;;11.20;46.80;;;;;;5014061;28;20236;-42
2022/09/29 00:47:46;;;;;;;7.15;4.50;;;11.20;46.70;;;;;;5013498;28;20520;-42
2022/09/29 00:50:46;;;;;;;5.85;4.70;;;11.20;46.60;;;;;;5014050;28;20302;-41
2022/09/29 00:53:13;;;;;;;5.15;4.70;;;11.10;46.70;;;;;;5014238;28;20186;-41
2022/09/29 00:55:49;;;;;;;5.45;4.18;;;11.10;47.10;;;;;;5013237;28;20680;-42
2022/09/29 00:58:36;;;;;;;9.77;4.10;;;11.10;46.80;;;;;;5013845;28;20642;-42
2022/09/29 01:01:03;;;;;;;4.25;3.85;;;11.10;46.70;;;;;;5013660;28;20694;-41
2022/09/29 01:03:34;;;;;;;5.65;4.55;;;11.00;46.70;;;;;;5013884;28;20643;-42
2022/09/29 01:06:09;;;;;;;6.50;5.00;;;11.00;46.70;;;;;;5013205;28;20258;-41
2022/09/29 01:08:41;;;;;;;6.43;4.10;;;11.00;46.70;;;;;;5013388;28;20829;-42
2022/09/29 01:11:10;;;;;;;4.45;4.05;;;10.90;46.60;;;;;;5013557;28;20190;-42
2022/09/29 01:13:38;;;;;;;4.95;3.97;;;10.90;46.70;;;;;;5013514;28;20249;-41
2022/09/29 01:16:04;;;;;;;4.70;4.22;;;10.90;46.70;;;;;;5012997;28;20175;-41
2022/09/29 01:18:31;;;;;;;5.28;3.58;;;10.80;46.60;;;;;;5013290;28;20214;-42
2022/09/29 01:21:16;;;;;;;3.40;3.10;;;10.80;46.70;;;;;;5013349;28;20260;-41
2022/09/29 01:24:25;;;;;;;4.63;4.10;;;10.90;46.80;;;;;;5013426;28;20163;-40
2022/09/29 01:27:08;;;;;;;6.22;4.38;;;10.90;46.80;;;;;;5012714;28;20173;-42
2022/09/29 01:29:44;;;;;;;5.43;3.85;;;10.90;46.90;;;;;;5013311;28;20203;-43
2022/09/29 01:32:22;;;;;;;6.55;4.20;;;10.80;46.90;;;;;;5013262;28;20155;-43
2022/09/29 01:35:06;;;;;;;11.30;4.10;;;10.80;47.90;;;;;;5013138;28;20643;-43
2022/09/29 01:37:40;;;;;;;3.95;3.10;;;10.80;47.10;;;;;;5012515;28;20642;-43
2022/09/29 01:40:21;;;;;;;6.55;3.75;;;10.80;47.20;;;;;;5012097;28;20205;-42
2022/09/29 01:43:14;;;;;;;4.85;4.32;;;10.80;47.20;;;;;;5012994;28;20174;-42
2022/09/29 01:45:47;;;;;;;5.95;3.92;;;10.80;47.20;;;;;;5012339;28;20258;-42
2022/09/29 01:48:38;;;;;;;3.78;3.00;;;10.80;47.10;;;;;;5013200;28;20201;-43
2022/09/29 01:51:15;;;;;;;6.00;3.42;;;10.80;47.00;;;;;;5012271;28;20643;-43
2022/09/29 01:53:56;;;;;;;3.28;2.97;;;10.80;46.90;;;;;;5012874;28;20173;-43
2022/09/29 01:56:36;;;;;;;4.60;3.33;;;10.70;47.10;;;;;;5012290;28;20191;-42
2022/09/29 01:59:12;;;;;;;4.68;4.20;;;10.70;47.10;;;;;;5012891;28;20213;-43
2022/09/29 02:01:42;;;;;;;5.32;3.33;;;10.70;47.10;;;;;;5012678;28;20158;-42
2022/09/29 02:04:15;;;;;;;6.55;3.65;;;10.70;47.00;;;;;;5012982;28;20183;-43
2022/09/29 02:06:51;;;;;;;4.05;2.80;;;10.60;47.00;;;;;;5012104;28;20175;-42
2022/09/29 02:09:26;;;;;;;4.80;3.40;;;10.60;46.90;;;;;;5012484;28;20205;-43
2022/09/29 02:11:56;;;;;;;4.80;4.10;;;10.60;47.30;;;;;;5012596;28;20159;-43
2022/09/29 02:14:26;;;;;;;5.00;3.38;;;10.60;46.90;;;;;;5012803;28;20179;-42
2022/09/29 02:17:02;;;;;;;5.53;2.55;;;10.60;46.90;;;;;;5012075;28;20167;-43
2022/09/29 02:19:33;;;;;;;3.47;3.17;;;10.60;46.80;;;;;;5012242;28;20589;-41
2022/09/29 02:21:59;;;;;;;4.43;3.38;;;10.50;46.90;;;;;;5012502;28;20158;-42
2022/09/29 02:24:25;;;;;;;3.43;2.93;;;10.50;46.90;;;;;;5012618;28;20182;-42
2022/09/29 02:26:51;;;;;;;3.90;2.83;;;10.50;46.80;;;;;;5012049;28;20498;-42
2022/09/29 02:29:18;;;;;;;3.05;2.55;;;10.50;47.00;;;;;;5012329;28;20334;-42
2022/09/29 02:31:46;;;;;;;3.08;2.67;;;10.50;47.30;;;;;;4994887;28;20194;-41
2022/09/29 02:34:16;;;;;;;6.40;2.67;;;10.50;47.00;;;;;;5012356;28;20214;-43
2022/09/29 02:36:57;;;;;;;3.92;2.67;;;10.50;46.90;;;;;;5011667;28;20174;-42
2022/09/29 02:39:43;;;;;;;4.10;3.10;;;10.50;46.90;;;;;;5012153;28;20210;-42
2022/09/29 02:42:34;;;;;;;3.92;3.10;;;10.40;46.60;;;;;;4998229;28;20182;-42
2022/09/29 02:45:41;;;;;;;4.15;2.55;;;10.40;46.70;;;;;;5012260;28;20204;-41
2022/09/29 02:48:27;;;;;;;4.47;3.10;;;10.40;46.70;;;;;;4932391;29;20381;-42
2022/09/29 02:51:14;;;;;;;3.72;3.25;;;10.30;46.70;;;;;;5012151;28;20204;-41
2022/09/29 02:53:53;;;;;;;4.53;3.40;;;10.30;46.90;;;;;;5015968;28;20188;-40
2022/09/29 02:56:53;;;;;;;4.63;3.15;;;10.30;47.10;;;;;;5015599;28;20170;-41
2022/09/29 02:59:44;;;;;;;5.35;3.13;;;10.30;47.30;;;;;;5015948;28;20317;-41
2022/09/29 03:02:09;;;;;;;3.92;2.90;;;10.30;47.40;;;;;;5016294;28;20186;-43
2022/09/29 03:04:35;;;;;;;4.30;3.73;;;10.30;47.60;;;;;;5015943;28;20174;-42
2022/09/29 03:07:01;;;;;;;4.43;3.30;;;10.40;47.70;;;;;;5015607;28;20261;-42
2022/09/29 03:09:27;;;;;;;3.50;3.20;;;10.40;47.70;;;;;;5015953;28;20409;-42
2022/09/29 03:11:53;;;;;;;3.30;2.67;;;10.40;47.80;;;;;;5016161;28;20594;-41
2022/09/29 03:14:18;;;;;;;3.57;2.90;;;10.40;47.90;;;;;;5015727;28;20416;-42
2022/09/29 03:16:44;;;;;;;3.87;2.70;;;10.50;48.10;;;;;;5015145;28;20573;-42
2022/09/29 03:19:10;;;;;;;4.60;3.70;;;10.50;48.30;;;;;;5015438;28;20305;-42
2022/09/29 03:21:36;;;;;;;3.93;3.10;;;10.50;48.20;;;;;;5015648;28;20171;-43
2022/09/29 03:24:02;;;;;;;6.17;4.73;;;10.60;48.20;;;;;;5015614;28;20587;-42
2022/09/29 03:26:29;;;;;;;12.40;4.53;;;10.60;48.30;;;;;;5015023;28;20178;-43
2022/09/29 03:28:54;;;;;;;4.68;4.07;;;10.70;48.30;;;;;;5015402;28;20465;-43
2022/09/29 03:31:20;;;;;;;4.73;4.17;;;10.70;48.40;;;;;;5015694;28;20178;-43
2022/09/29 03:33:46;;;;;;;5.00;3.50;;;10.80;48.40;;;;;;5015416;28;20623;-42
2022/09/29 03:36:12;;;;;;;7.00;3.33;;;10.80;48.30;;;;;;5014725;28;20646;-43
2022/09/29 03:38:38;;;;;;;5.07;3.87;;;10.80;48.30;;;;;;5015542;28;20195;-43
2022/09/29 03:41:05;;;;;;;6.80;3.20;;;10.80;48.30;;;;;;5015505;28;21004;-42
2022/09/29 03:43:31;;;;;;;7.07;3.95;;;10.80;48.50;;;;;;5015271;28;20528;-42
2022/09/29 03:45:57;;;;;;;6.83;4.50;;;10.80;48.40;;;;;;5014909;28;20183;-43
2022/09/29 03:48:23;;;;;;;5.90;4.30;;;10.90;48.70;;;;;;5015291;28;20564;-42
2022/09/29 03:50:50;;;;;;;4.82;3.83;;;10.90;48.70;;;;;;5015399;28;20437;-42
2022/09/29 03:53:16;;;;;;;5.70;3.60;;;10.90;48.60;;;;;;5015084;28;20181;-42
2022/09/29 03:55:46;;;;;;;5.53;4.03;;;11.00;48.70;;;;;;5014540;28;20170;-42
2022/09/29 03:58:13;;;;;;;4.95;3.45;;;11.00;48.70;;;;;;5014898;28;20433;-42
2022/09/29 04:00:39;;;;;;;4.40;3.50;;;11.00;48.70;;;;;;5014889;28;20613;-43
2022/09/29 04:03:05;;;;;;;4.13;3.70;;;11.10;48.80;;;;;;5013971;28;20171;-42
2022/09/29 04:05:34;;;;;;;3.50;3.03;;;11.10;48.90;;;;;;5014459;28;20406;-42
2022/09/29 04:07:59;;;;;;;8.25;3.90;;;11.10;48.80;;;;;;5014734;28;20249;-42
2022/09/29 04:10:25;;;;;;;11.70;3.70;;;11.10;48.70;;;;;;5014763;28;20171;-42
2022/09/29 04:12:51;;;;;;;4.20;3.40;;;11.20;48.60;;;;;;5014710;28;20448;-43
2022/09/29 04:15:17;;;;;;;4.00;3.00;;;11.20;48.50;;;;;;5014902;28;20705;-43
2022/09/29 04:17:42;;;;;;;5.13;2.97;;;11.20;48.40;;;;;;5014190;28;20299;-42
2022/09/29 04:20:08;;;;;;;5.50;3.77;;;11.20;48.40;;;;;;5014529;28;20249;-42
2022/09/29 04:22:34;;;;;;;4.20;2.73;;;11.30;48.40;;;;;;5014576;28;20212;-41
2022/09/29 04:25:00;;;;;;;4.30;3.70;;;11.20;48.40;;;;;;5014458;28;20444;-42
2022/09/29 04:27:26;;;;;;;4.17;3.60;;;11.20;48.40;;;;;;5013799;28;20170;-42
2022/09/29 04:29:51;;;;;;;3.83;3.53;;;11.20;48.50;;;;;;5014340;28;20186;-42
2022/09/29 04:32:17;;;;;;;5.53;3.90;;;11.20;48.50;;;;;;5014480;28;20233;-42
2022/09/29 04:34:43;;;;;;;4.20;3.40;;;11.30;48.70;;;;;;5014325;28;20171;-41
2022/09/29 04:37:12;;;;;;;5.23;3.90;;;11.30;48.80;;;;;;5013813;28;20258;-42
2022/09/29 04:39:37;;;;;;;4.40;2.92;;;11.30;48.80;;;;;;5014045;28;20209;-40
2022/09/29 04:42:04;;;;;;;3.90;3.33;;;11.30;48.80;;;;;;5014447;28;20178;-42
2022/09/29 04:44:29;;;;;;;5.15;3.35;;;11.40;48.80;;;;;;5014040;28;20257;-42
2022/09/29 04:46:55;;;;;;;4.70;3.77;;;11.40;48.90;;;;;;5013784;28;20282;-42
2022/09/29 04:49:21;;;;;;;5.67;3.97;;;11.40;48.80;;;;;;5013860;28;20469;-42
2022/09/29 04:51:47;;;;;;;7.55;4.20;;;11.40;48.80;;;;;;5014012;28;20240;-41
2022/09/29 04:54:13;;;;;;;5.30;3.93;;;11.40;48.80;;;;;;5013896;28;20178;-41
2022/09/29 04:56:39;;;;;;;4.30;3.90;;;11.50;49.00;;;;;;5013237;28;20413;-42
2022/09/29 04:59:05;;;;;;;6.13;3.20;;;11.50;48.90;;;;;;5013925;28;20198;-41
2022/09/29 05:01:31;;;;;;;4.88;4.38;;;11.50;48.90;;;;;;5014009;28;20464;-42
2022/09/29 05:03:57;;;;;;;4.50;3.57;;;11.50;49.00;;;;;;5014022;28;20574;-42
2022/09/29 05:06:22;;;;;;;4.27;3.50;;;11.50;49.00;;;;;;5013175;28;20397;-42
2022/09/29 05:08:48;;;;;;;4.47;3.93;;;11.50;49.10;;;;;;5013545;28;20428;-42
2022/09/29 05:11:14;;;;;;;5.55;4.05;;;11.50;49.10;;;;;;5013638;28;20177;-42
2022/09/29 05:13:40;;;;;;;5.30;3.67;;;11.60;49.10;;;;;;5013627;28;20266;-42
2022/09/29 05:16:06;;;;;;;6.25;4.65;;;11.50;49.10;;;;;;5012913;28;20190;-42
2022/09/29 05:18:33;;;;;;;4.90;4.38;;;11.60;49.10;;;;;;5013278;28;20283;-42
2022/09/29 05:21:04;;;;;;;5.97;4.07;;;11.60;49.10;;;;;;5013275;28;20208;-42
2022/09/29 05:23:30;;;;;;;5.28;3.95;;;11.60;49.10;;;;;;5013237;28;20178;-42
2022/09/29 05:26:01;;;;;;;4.43;3.47;;;11.60;49.10;;;;;;5013318;28;20181;-42
2022/09/29 05:28:26;;;;;;;7.82;5.20;;;11.60;49.10;;;;;;5013261;28;20471;-43
2022/09/29 05:30:52;;;;;;;6.33;5.03;;;11.70;49.20;;;;;;5013393;28;20182;-42
2022/09/29 05:33:18;;;;;;;9.57;5.50;;;11.60;49.10;;;;;;5013177;28;20248;-42
2022/09/29 05:35:44;;;;;;;4.87;4.37;;;11.70;49.20;;;;;;5012609;28;20175;-42
2022/09/29 05:38:09;;;;;;;6.40;4.90;;;11.70;49.20;;;;;;5013018;28;20191;-41
2022/09/29 05:40:36;;;;;;;4.70;4.23;;;11.70;49.30;;;;;;5013328;28;20281;-43
2022/09/29 05:43:02;;;;;;;6.38;4.80;;;11.70;49.20;;;;;;5012982;28;20205;-42
2022/09/29 05:45:28;;;;;;;6.93;5.03;;;11.80;49.20;;;;;;5012883;28;20182;-43
2022/09/29 05:47:54;;;;;;;6.47;4.78;;;11.80;49.20;;;;;;5012431;28;20693;-42
2022/09/29 05:50:20;;;;;;;6.57;4.57;;;11.80;49.20;;;;;;5012943;28;20183;-42
2022/09/29 05:52:49;;;;;;;6.85;6.05;;;11.80;49.20;;;;;;5012837;28;20594;-42
2022/09/29 05:55:15;;;;;;;7.80;5.18;;;11.80;49.20;;;;;;5012832;28;20186;-41
2022/09/29 05:57:41;;;;;;;5.97;5.30;;;11.80;49.40;;;;;;5012305;28;20198;-42
2022/09/29 06:00:07;;;;;;;8.00;4.13;;;11.90;49.50;;;;;;5012855;28;20673;-42
2022/09/29 06:02:33;;;;;;;7.55;5.15;;;11.90;49.50;;;;;;5012682;28;20254;-41
2022/09/29 06:04:59;;;;;;;6.87;5.57;;;11.90;49.60;;;;;;5012706;28;20278;-42
2022/09/29 06:07:25;;;;;;;6.10;4.97;;;11.90;49.40;;;;;;5011698;28;20162;-41
2022/09/29 06:09:51;;;;;;;6.43;4.90;;;11.90;49.50;;;;;;5012578;28;20174;-42
2022/09/29 06:12:17;;;;;;;5.95;5.35;;;12.00;49.40;;;;;;5012881;28;20546;-42
2022/09/29 06:14:43;;;;;;;6.77;5.70;;;12.00;49.40;;;;;;5012715;28;20181;-41
2022/09/29 06:17:08;;;;;;;7.30;5.40;;;12.10;49.50;;;;;;5011979;28;20570;-42
2022/09/29 06:19:34;;;;;;;9.77;5.23;;;12.10;49.50;;;;;;5012195;28;20214;-43
2022/09/29 06:22:00;;;;;;;10.30;6.77;;;12.10;49.70;;;;;;5012509;28;20182;-42
2022/09/29 06:24:26;;;;;;;5.57;4.97;;;12.10;49.70;;;;;;5012027;28;20535;-42
2022/09/29 06:26:52;;;;;;;10.60;6.80;;;12.20;49.60;;;;;;5011624;28;20213;-41
2022/09/29 06:29:17;;;;;;;6.60;4.70;;;12.20;49.70;;;;;;5012418;28;20276;-43
2022/09/29 06:31:43;;;;;;;6.70;6.00;;;12.30;49.70;;;;;;5012345;28;20923;-41
2022/09/29 06:34:09;;;;;;;8.10;6.30;;;12.30;49.70;;;;;;5012304;28;20171;-41
2022/09/29 06:39:27;;;;;;;9.07;6.22;;;12.40;49.80;;;;;;5012459;28;20252;-42
2022/09/29 06:41:55;;;;;;;11.95;6.95;;;12.40;49.80;;;;;;5012207;28;20197;-40
2022/09/29 06:44:23;;;;;;;9.02;6.80;;;12.50;50.00;;;;;;5012268;28;20250;-42
2022/09/29 06:46:50;;;;;;;7.43;6.00;;;12.60;49.90;;;;;;5011504;28;20167;-41
2022/09/29 06:49:16;;;;;;;7.95;6.70;;;12.70;50.00;;;;;;5012086;28;20202;-41
2022/09/29 06:51:43;;;;;;;7.28;6.43;;;12.80;49.80;;;;;;5012199;28;20174;-42
2022/09/29 06:54:10;;;;;;;7.80;6.70;;;12.90;49.70;;;;;;5012201;28;20717;-42
2022/09/29 06:56:36;;;;;;;11.02;7.53;;;12.90;49.40;;;;;;5011766;28;20248;-42
2022/09/29 06:59:02;;;;;;;8.60;7.03;;;13.00;49.30;;;;;;5011911;28;20203;-42
2022/09/29 07:01:27;;;;;;;9.53;6.73;;;13.10;49.50;;;;;;5011938;28;20401;-42
2022/09/29 07:03:53;;;;;;;13.13;8.60;;;13.00;49.40;;;;;;5011995;28;20403;-42
2022/09/29 07:06:19;;;;;;;8.52;6.63;;;13.10;49.50;;;;;;5011642;28;20166;-41
2022/09/29 07:08:45;;;;;;;9.60;6.80;;;13.20;49.40;;;;;;5011914;28;20696;-42
2022/09/29 07:11:11;;;;;;;7.60;6.60;;;13.20;49.40;;;;;;5011933;28;20405;-43
2022/09/29 07:13:37;;;;;;;8.60;7.03;;;13.40;49.50;;;;;;5011921;28;20420;-43
2022/09/29 07:16:08;;;;;;;10.13;6.88;;;13.40;49.40;;;;;;5011493;28;20417;-42
2022/09/29 07:18:36;;;;;;;8.00;6.25;;;13.50;49.10;;;;;;5011840;28;20241;-43
2022/09/29 07:21:08;;;;;;;9.15;7.68;;;13.50;48.90;;;;;;5011796;28;20614;-42
2022/09/29 07:23:35;;;;;;;8.50;6.53;;;13.50;49.10;;;;;;5011938;28;20186;-42
2022/09/29 07:26:01;;;;;;;7.55;6.18;;;13.70;49.20;;;;;;5011249;28;20175;-43
2022/09/29 07:28:28;;;;;;;7.60;6.47;;;13.80;49.20;;;;;;5011726;28;20190;-42
2022/09/29 07:31:11;;;;;;;9.43;7.35;;;13.90;49.30;;;;;;5011746;28;20536;-42
2022/09/29 07:33:36;;;;;;;8.57;7.45;;;14.00;48.90;;;;;;5011849;28;20187;-42
2022/09/29 07:36:03;;;;;;;8.27;6.83;;;14.10;48.90;;;;;;5011327;28;20206;-43
2022/09/29 07:38:29;;;;;;;7.60;6.80;;;14.20;49.50;;;;;;5014420;28;20225;-42
2022/09/29 07:41:06;;;;;;;8.73;6.90;;;14.30;48.90;;;;;;5015211;28;20233;-43
2022/09/29 07:43:33;;;;;;;10.15;7.78;;;14.40;48.90;;;;;;5015439;28;20647;-42
2022/09/29 07:45:59;;;;;;;7.82;6.50;;;14.60;48.90;;;;;;5014633;28;20646;-43
2022/09/29 07:48:26;;;;;;;12.85;7.25;;;14.70;48.90;;;;;;5015404;28;20240;-43
2022/09/29 07:50:52;;;;;;;8.70;6.63;;;14.80;48.80;;;;;;5015222;28;20183;-41
2022/09/29 07:53:18;;;;;;;8.10;6.53;;;14.80;46.80;;;;;;5015200;28;20681;-42
2022/09/29 07:55:43;;;;;;;8.10;7.30;;;14.80;47.30;;;;;;5014383;28;20187;-42
2022/09/29 07:58:09;;;;;;;8.10;6.50;;;14.80;47.50;;;;;;5014933;28;20203;-42
2022/09/29 08:00:35;;;;;;;9.30;7.33;;;14.90;47.70;;;;;;5015172;28;20499;-42
2022/09/29 08:03:06;;;;;;;7.53;6.30;;;15.00;47.70;;;;;;5014873;28;20170;-42
2022/09/29 08:05:33;;;;;;;7.45;6.72;;;15.10;47.40;;;;;;5014548;28;20646;-41
2022/09/29 08:08:03;;;;;;;7.22;6.13;;;15.10;47.40;;;;;;5014761;28;20241;-42
2022/09/29 08:10:30;;;;;;;8.07;5.50;;;15.20;47.30;;;;;;5014758;28;20209;-41
2022/09/29 08:12:56;;;;;;;7.05;6.20;;;15.30;47.40;;;;;;5014803;28;20171;-42
2022/09/29 08:15:23;;;;;;;8.90;6.47;;;15.20;46.90;;;;;;5014633;28;20171;-43
2022/09/29 08:17:52;;;;;;;8.98;6.35;;;15.20;45.50;;;;;;5013988;28;20202;-42
2022/09/29 08:20:18;;;;;;;7.10;6.40;;;15.20;46.40;;;;;;5014521;28;20261;-43
2022/09/29 08:22:45;;;;;;;9.50;7.30;;;15.30;47.00;;;;;;5014535;28;20170;-42
2022/09/29 08:25:11;;;;;;;8.25;6.45;;;15.40;46.50;;;;;;5014753;28;20236;-42
2022/09/29 08:27:37;;;;;;;8.93;7.10;;;15.50;46.50;;;;;;5013802;28;20273;-42
2022/09/29 08:30:04;;;;;;;9.70;6.70;;;15.60;45.90;;;;;;5014333;28;20401;-41
2022/09/29 08:32:30;;;;;;;8.63;6.07;;;15.70;46.60;;;;;;5014313;28;20420;-43
2022/09/29 08:34:56;;;;;;;8.90;6.47;;;15.80;46.70;;;;;;5014599;28;20538;-42
2022/09/29 08:37:22;;;;;;;7.77;6.83;;;15.90;46.60;;;;;;5013511;28;20257;-43
2022/09/29 08:39:48;;;;;;;7.17;5.50;;;16.00;46.20;;;;;;5014445;28;20199;-43
2022/09/29 08:42:19;;;;;;;8.87;7.30;;;16.00;46.10;;;;;;5014467;28;20555;-42
2022/09/29 08:44:55;;;;;;;7.70;6.32;;;16.20;46.50;;;;;;5014188;28;20394;-43
2022/09/29 08:47:28;;;;;;;7.80;7.00;;;16.30;46.70;;;;;;5013436;28;20630;-43
2022/09/29 08:50:02;;;;;;;7.30;5.95;;;16.40;46.30;;;;;;5014110;28;20166;-43
2022/09/29 08:52:37;;;;;;;8.57;6.75;;;16.60;46.40;;;;;;5014007;28;20179;-42
2022/09/29 08:55:15;;;;;;;6.90;6.20;;;16.70;46.40;;;;;;5014251;28;20184;-42
2022/09/29 08:57:42;;;;;;;6.95;6.07;;;16.80;44.20;;;;;;5013228;28;20201;-43
2022/09/29 09:00:15;;;;;;;9.30;6.90;;;16.90;45.30;;;;;;5013771;28;20262;-42
2022/09/29 09:03:02;;;;;;;9.60;6.57;;;17.00;44.90;;;;;;5014025;28;20170;-43
2022/09/29 09:05:54;;;;;;;6.35;5.65;;;17.10;44.10;;;;;;5013774;28;20174;-43
2022/09/29 09:08:32;;;;;;;8.25;5.70;;;17.10;43.20;;;;;;4998690;28;20191;-42
2022/09/29 09:11:16;;;;;;;6.38;5.38;;;17.20;44.00;;;;;;5013858;28;20182;-43
2022/09/29 09:14:06;;;;;;;8.43;6.32;;;17.30;44.60;;;;;;5013555;28;20163;-42
2022/09/29 09:17:06;;;;;;;6.60;5.90;;;17.40;44.00;;;;;;5013024;28;20286;-43
2022/09/29 09:19:43;;;;;;;8.27;6.28;;;17.60;44.20;;;;;;4982910;28;20215;-42
2022/09/29 09:22:21;;;;;;;8.95;6.55;;;17.70;42.40;;;;;;5013534;28;20615;-42
2022/09/29 09:25:06;;;;;;;5.55;4.68;;;17.80;43.10;;;;;;5013704;28;20532;-43
2022/09/29 09:27:38;;;;;;;5.85;5.35;;;18.00;43.30;;;;;;5012665;28;20167;-42
2022/09/29 09:30:12;;;;;;;5.70;5.10;;;18.10;43.00;;;;;;5013339;28;20226;-42
2022/09/29 09:32:46;;;;;;;6.22;5.63;;;18.20;42.70;;;;;;5013207;28;20249;-42
2022/09/29 09:35:21;;;;;;;7.72;7.05;;;18.30;40.40;;;;;;5013262;28;20171;-43
2022/09/29 09:37:48;;;;;;;6.10;5.50;;;18.30;41.20;;;;;;5012575;28;20190;-42
2022/09/29 09:40:28;;;;;;;8.85;6.97;;;18.30;41.70;;;;;;5013228;28;20264;-42
2022/09/29 09:43:09;;;;;;;6.80;5.85;;;18.40;41.20;;;;;;5013090;28;20151;-43
2022/09/29 09:45:49;;;;;;;5.03;4.63;;;18.60;41.30;;;;;;5012742;28;20242;-43
2022/09/29 09:48:37;;;;;;;6.80;4.47;;;18.60;41.10;;;;;;5012932;28;20229;-41
2022/09/29 09:51:28;;;;;;;4.63;4.07;;;18.80;39.90;;;;;;5013272;28;20265;-42
2022/09/29 09:53:55;;;;;;;6.43;5.30;;;18.90;40.70;;;;;;5013413;28;20178;-42
2022/09/29 09:56:30;;;;;;;5.90;5.30;;;18.90;39.00;;;;;;5012309;28;20182;-42
2022/09/29 09:59:29;;;;;;;5.18;4.72;;;18.80;36.90;;;;;;5012943;28;20538;-41
2022/09/29 10:01:55;;;;;;;5.53;4.50;;;18.90;39.70;;;;;;4998171;28;20167;-42
2022/09/29 10:04:24;;;;;;;6.32;4.00;;;19.00;40.20;;;;;;5012744;28;20182;-41
2022/09/29 10:06:51;;;;;;;6.00;5.40;;;19.20;40.30;;;;;;5011982;28;20178;-42
2022/09/29 10:09:18;;;;;;;6.35;3.85;;;19.30;38.40;;;;;;5012635;28;20665;-41
2022/09/29 10:11:44;;;;;;;4.90;4.40;;;19.40;39.10;;;;;;5012581;28;20177;-42
2022/09/29 10:14:32;;;;;;;5.95;4.20;;;19.40;38.30;;;;;;5012621;28;20170;-41
2022/09/29 10:17:11;;;;;;;4.78;4.35;;;19.40;37.90;;;;;;5012123;28;20171;-41
2022/09/29 10:20:04;;;;;;;4.35;3.92;;;19.50;38.10;;;;;;5012322;28;20202;-42
2022/09/29 10:22:31;;;;;;;5.18;4.03;;;19.50;37.40;;;;;;5012451;28;20183;-42
2022/09/29 10:25:17;;;;;;;6.78;4.35;;;19.50;38.10;;;;;;5012462;28;20647;-42
2022/09/29 10:27:49;;;;;;;5.85;4.03;;;19.60;39.10;;;;;;5011699;28;20209;-41
2022/09/29 10:30:37;;;;;;;4.15;3.75;;;19.60;39.20;;;;;;5012300;28;20178;-42
2022/09/29 10:33:05;;;;;;;5.60;4.68;;;19.50;38.10;;;;;;5011781;28;20194;-42
2022/09/29 10:35:39;;;;;;;4.18;3.50;;;19.40;38.40;;;;;;5012024;28;20666;-42
2022/09/29 10:38:14;;;;;;;4.82;4.32;;;19.40;38.50;;;;;;5012170;28;20301;-42
2022/09/29 10:40:56;;;;;;;4.03;3.63;;;19.30;38.10;;;;;;5012426;28;20201;-41
2022/09/29 10:43:34;;;;;;;3.78;3.38;;;19.20;38.00;;;;;;5012200;28;20170;-42
2022/09/29 10:46:00;;;;;;;3.70;3.40;;;19.20;37.30;;;;;;5011739;28;20170;-42
2022/09/29 10:48:26;;;;;;;4.00;3.63;;;19.20;38.60;;;;;;5012361;28;20193;-42
2022/09/29 10:50:56;;;;;;;6.25;2.70;;;19.30;38.00;;;;;;5012266;28;20670;-42
2022/09/29 10:53:42;;;;;;;2.85;2.58;;;19.20;36.80;;;;;;5012109;28;20182;-42
2022/09/29 10:56:23;;;;;;;3.28;2.78;;;19.20;36.90;;;;;;5011482;28;20650;-42
2022/09/29 10:58:56;;;;;;;3.45;2.90;;;19.20;37.90;;;;;;5012093;28;20552;-42
2022/09/29 11:01:24;;;;;;;3.15;2.85;;;19.10;36.60;;;;;;5012176;28;20229;-42
2022/09/29 11:04:03;;;;;;;4.60;3.00;;;19.20;37.50;;;;;;5012081;28;20329;-42
2022/09/29 11:06:31;;;;;;;3.60;2.75;;;19.30;37.70;;;;;;5010560;28;20179;-42
2022/09/29 11:09:19;;;;;;;3.58;2.83;;;19.40;37.80;;;;;;5011617;28;20198;-42
2022/09/29 11:11:48;;;;;;;4.00;3.20;;;19.60;38.20;;;;;;5013166;28;20756;-42
2022/09/29 11:14:27;;;;;;;4.40;3.35;;;19.80;36.60;;;;;;5016132;28;20186;-42
2022/09/29 11:16:59;;;;;;;3.28;2.75;;;20.00;37.20;;;;;;5015327;28;20701;-42
2022/09/29 11:19:25;;;;;;;8.07;3.10;;;20.00;36.50;;;;;;5015633;28;20670;-42
2022/09/29 11:22:29;;;;;;;3.50;2.65;;;20.00;36.00;;;;;;5015719;28;20175;-42
2022/09/29 11:25:17;;;;;;;3.15;2.25;;;20.00;36.50;;;;;;5003479;28;20170;-42
2022/09/29 11:27:42;;;;;;;2.95;2.65;;;19.90;37.00;;;;;;5015148;28;20206;-42
2022/09/29 11:30:18;;;;;;;3.83;2.30;;;19.90;37.20;;;;;;5015468;28;20183;-42
2022/09/29 11:33:31;;;;;;;2.72;2.33;;;19.90;36.00;;;;;;5015906;28;20159;-42
2022/09/29 11:36:35;;;;;;;2.78;1.73;;;20.10;36.70;;;;;;4997914;28;20190;-42
2022/09/29 11:39:12;;;;;;;3.05;1.60;;;20.30;36.30;;;;;;4991761;28;20290;-42
2022/09/29 11:42:04;;;;;;;3.00;2.20;;;20.50;36.20;;;;;;5015320;28;20230;-42
2022/09/29 11:44:48;;;;;;;2.30;1.80;;;20.50;33.60;;;;;;5015365;28;20170;-41
2022/09/29 11:47:30;;;;;;;3.08;1.83;;;20.40;34.90;;;;;;5014706;28;20179;-42
2022/09/29 11:50:07;;;;;;;2.78;2.00;;;20.30;34.30;;;;;;5015556;28;20163;-42
2022/09/29 11:52:42;;;;;;;5.32;3.25;;;20.10;33.90;;;;;;5015308;28;20213;-42
2022/09/29 11:55:36;;;;;;;2.30;1.88;;;20.00;33.90;;;;;;5015108;28;20692;-42
2022/09/29 11:58:21;;;;;;;2.65;2.00;;;19.90;34.20;;;;;;5015216;28;20248;-42
2022/09/29 12:00:59;;;;;;;2.55;2.03;;;19.70;33.90;;;;;;5015243;28;20218;-42
2022/09/29 12:03:36;;;;;;;2.67;1.85;;;19.60;34.40;;;;;;5014885;28;20181;-42
2022/09/29 12:06:23;;;;;;;4.07;2.25;;;19.60;34.90;;;;;;5014567;28;20170;-42
2022/09/29 12:09:24;;;;;;;12.93;3.50;;;19.50;34.10;;;;;;5015069;28;20195;-43
2022/09/29 12:12:05;;;;;;;4.85;2.42;;;19.60;34.90;;;;;;4968822;28;20657;-42
2022/09/29 12:14:46;;;;;;;3.10;1.80;;;19.80;34.70;;;;;;5014777;28;20174;-43
2022/09/29 12:17:17;;;;;;;2.78;1.60;;;19.80;33.40;;;;;;5014462;28;20238;-42
2022/09/29 12:19:46;;;;;;;2.45;2.15;;;19.90;33.90;;;;;;5014725;28;20218;-43
2022/09/29 12:22:18;;;;;;;5.03;2.15;;;19.90;34.20;;;;;;5014258;28;20186;-42
2022/09/29 12:24:50;;;;;;;2.88;1.80;;;20.00;33.60;;;;;;5014226;28;20249;-42
2022/09/29 12:27:35;;;;;;;2.90;2.15;;;20.10;34.50;;;;;;5013916;28;20178;-42
2022/09/29 12:30:09;;;;;;;1.90;1.48;;;20.20;35.40;;;;;;5014568;28;20154;-41
2022/09/29 12:32:40;;;;;;;2.63;1.90;;;20.10;32.20;;;;;;5014420;28;20205;-42
2022/09/29 12:35:17;;;;;;;2.20;1.98;;;20.10;33.90;;;;;;5014659;28;20229;-43
2022/09/29 12:38:19;;;;;;;2.30;1.70;;;20.00;33.90;;;;;;5013746;28;20194;-43
2022/09/29 12:41:08;;;;;;;3.03;2.05;;;19.90;33.60;;;;;;5009555;28;20210;-42
2022/09/29 12:43:46;;;;;;;13.40;11.50;;;19.80;34.60;;;;;;5001768;28;20185;-42
2022/09/29 12:46:24;;;;;;;28.40;21.65;;;19.80;34.70;;;;;;5013636;28;20167;-42
2022/09/29 12:49:05;;;;;;;9.30;7.60;;;19.70;34.70;;;;;;5014114;28;20198;-42
2022/09/29 12:51:51;;;;;;;2.90;2.47;;;19.70;35.10;;;;;;5013986;28;20171;-43
2022/09/29 12:54:22;;;;;;;2.75;2.00;;;19.60;32.80;;;;;;5014512;28;20183;-42
2022/09/29 12:57:04;;;;;;;4.90;3.80;;;19.50;32.90;;;;;;5013672;28;20193;-43
2022/09/29 12:59:44;;;;;;;1.92;1.73;;;19.40;33.10;;;;;;5014125;28;20268;-42
2022/09/29 13:02:25;;;;;;;3.53;2.50;;;19.30;33.10;;;;;;5013849;28;20190;-43
2022/09/29 13:05:18;;;;;;;3.20;2.30;;;19.40;34.70;;;;;;5013891;28;20162;-43
2022/09/29 13:07:53;;;;;;;2.72;2.08;;;19.40;33.80;;;;;;5013212;28;20193;-42
2022/09/29 13:10:21;;;;;;;6.55;3.00;;;19.40;34.60;;;;;;5013710;28;20246;-43
2022/09/29 13:13:05;;;;;;;4.43;3.25;;;19.40;35.40;;;;;;5013665;28;20178;-42
2022/09/29 13:15:42;;;;;;;4.35;2.72;;;19.50;35.50;;;;;;5013553;28;20166;-42